Time;durP1;ratioP1;P1;durP2;ratioP2;P2;SDS_P1;SDS_P2;PMS_P1;PMS_P2;Temp;Humidity;BMP_temperature;BMP_pressure;BME280_temperature;BME280_humidity;BME280_pressure;Samples;Min_cycle;Max_cycle;Signal;HPM_P1;HPM_P2
2023/09/15 00:03:20;;;;;;;5.87;4.27;;;;;;;17.49;59.43;98926.59;6891597;28;20336;-82
2023/09/15 00:06:46;;;;;;;4.93;4.43;;;;;;;17.66;59.19;98959.31;6892128;28;20647;-83
2023/09/15 00:10:11;;;;;;;3.90;3.60;;;;;;;18.54;58.40;99021.13;6881946;28;20206;-87
2023/09/15 00:13:34;;;;;;;5.47;3.93;;;;;;;18.50;57.96;99025.41;6864895;28;20239;-82
2023/09/15 00:16:56;;;;;;;4.40;4.00;;;;;;;18.49;57.74;99017.47;6864314;28;20656;-84
2023/09/15 00:20:18;;;;;;;4.10;3.67;;;;;;;18.12;58.01;98970.75;6864721;28;20247;-83
2023/09/15 00:23:40;;;;;;;4.20;3.80;;;;;;;18.31;57.78;99004.06;6864753;28;20603;-83
2023/09/15 00:27:01;;;;;;;4.37;3.97;;;;;;;18.08;57.34;99018.72;6864746;28;20302;-83
2023/09/15 00:30:26;;;;;;;5.77;3.77;;;;;;;17.96;58.66;99023.44;6864234;28;20359;-84
2023/09/15 00:33:47;;;;;;;5.47;4.00;;;;;;;17.51;58.88;98998.06;6864911;28;20361;-82
2023/09/15 00:37:09;;;;;;;5.73;3.83;;;;;;;17.79;59.64;99013.56;6865088;28;20240;-83
2023/09/15 00:40:30;;;;;;;5.40;4.03;;;;;;;17.59;59.33;98999.56;6864529;28;20433;-83
2023/09/15 00:43:52;;;;;;;5.73;3.73;;;;;;;17.96;58.65;99000.75;6865064;28;20293;-83
2023/09/15 00:47:15;;;;;;;5.30;3.77;;;;;;;17.88;59.10;99010.16;6864603;28;20269;-84
2023/09/15 00:50:37;;;;;;;5.50;4.43;;;;;;;17.40;60.10;99011.75;6864279;28;20298;-83
2023/09/15 00:53:59;;;;;;;3.73;3.43;;;;;;;17.82;59.63;99005.69;6864613;28;20234;-82
2023/09/15 00:57:20;;;;;;;4.50;4.10;;;;;;;17.19;59.18;98900.66;6863893;28;20247;-83
2023/09/15 01:00:43;;;;;;;4.57;4.10;;;;;;;17.45;60.05;98970.97;6863867;28;20350;-83
2023/09/15 01:04:08;;;;;;;4.43;4.03;;;;;;;17.82;59.44;99005.69;6864605;28;20319;-83
2023/09/15 01:07:29;;;;;;;5.87;3.73;;;;;;;18.12;58.43;99008.13;6864705;28;20710;-83
2023/09/15 01:10:51;;;;;;;4.07;3.67;;;;;;;17.91;58.49;99003.41;6863243;28;20659;-83
2023/09/15 01:14:13;;;;;;;4.40;3.63;;;;;;;17.66;59.33;98992.91;6863831;28;20222;-83
2023/09/15 01:17:43;;;;;;;5.57;3.80;;;;;;;17.82;58.74;98985.81;6863210;28;20204;-83
2023/09/15 01:21:31;;;;;;;4.50;4.07;;;;;;;17.33;58.79;98962.00;6863668;28;20202;-83
2023/09/15 01:25:24;;;;;;;4.70;3.90;;;;;;;17.55;59.62;98991.06;6862770;28;20223;-83
2023/09/15 01:29:08;;;;;;;4.77;3.87;;;;;;;17.47;59.52;98983.28;6863966;28;20277;-83
2023/09/15 01:32:33;;;;;;;6.13;3.70;;;;;;;17.03;58.88;98899.56;6863543;28;20653;-84
2023/09/15 01:35:54;;;;;;;9.57;4.40;;;;;;;17.53;59.18;98990.47;6863609;28;20196;-84
2023/09/15 01:39:16;;;;;;;4.10;3.70;;;;;;;17.84;57.50;98959.09;6863656;28;20204;-83
2023/09/15 01:42:40;;;;;;;4.37;3.83;;;;;;;17.89;58.09;98984.56;6862764;28;20712;-83
2023/09/15 01:46:01;;;;;;;5.60;3.90;;;;;;;17.79;57.86;98987.13;6863011;28;20321;-84
2023/09/15 01:49:25;;;;;;;5.23;3.90;;;;;;;17.72;57.73;98947.44;6861077;28;20355;-84
2023/09/15 01:52:47;;;;;;;6.67;4.20;;;;;;;17.81;57.96;98993.13;6862023;28;20710;-85
2023/09/15 01:56:08;;;;;;;4.20;3.90;;;;;;;17.74;58.23;98987.03;6863304;28;20299;-82
2023/09/15 01:59:30;;;;;;;4.33;3.90;;;;;;;17.91;57.87;98989.75;6862182;28;20299;-83
2023/09/15 02:02:51;;;;;;;4.40;4.00;;;;;;;17.75;57.10;98975.03;6862113;28;20269;-83
2023/09/15 02:06:16;;;;;;;5.37;4.33;;;;;;;17.70;57.68;98988.59;6863281;28;20297;-82
2023/09/15 02:09:38;;;;;;;5.13;3.87;;;;;;;17.62;57.98;98990.88;6862580;28;20204;-84
2023/09/15 02:12:59;;;;;;;4.30;3.90;;;;;;;17.52;58.39;98988.00;6860600;28;20243;-82
2023/09/15 02:16:21;;;;;;;4.60;3.97;;;;;;;17.20;57.99;98915.94;6861757;28;20237;-82
2023/09/15 02:19:42;;;;;;;4.57;4.07;;;;;;;17.48;58.42;98978.63;6862760;28;20379;-82
2023/09/15 02:23:05;;;;;;;4.67;4.10;;;;;;;17.09;59.16;98947.63;6861808;28;20226;-83
2023/09/15 02:26:27;;;;;;;4.53;4.07;;;;;;;17.66;58.65;98983.88;6862792;28;20235;-82
2023/09/15 02:29:48;;;;;;;4.77;3.80;;;;;;;17.75;57.71;98977.75;6862622;28;20293;-82
2023/09/15 02:33:10;;;;;;;5.73;4.07;;;;;;;17.70;57.48;98980.41;6861576;28;20309;-83
2023/09/15 02:36:31;;;;;;;4.63;3.37;;;;;;;17.60;57.49;98980.25;6862339;28;20245;-82
2023/09/15 02:39:54;;;;;;;5.57;4.07;;;;;;;17.30;59.22;98987.81;6861886;28;20357;-83
2023/09/15 02:43:16;;;;;;;6.20;4.17;;;;;;;17.20;58.72;98995.78;6861704;28;20235;-84
2023/09/15 02:46:38;;;;;;;4.97;3.90;;;;;;;16.99;59.11;98982.03;6861740;28;20303;-83
2023/09/15 02:49:59;;;;;;;4.77;4.33;;;;;;;17.00;59.54;98994.56;6862346;28;20269;-83
2023/09/15 02:53:20;;;;;;;5.07;4.57;;;;;;;16.96;60.09;98988.78;6861441;28;20320;-83
2023/09/15 02:56:43;;;;;;;5.40;4.20;;;;;;;16.57;60.10;98909.81;6862136;28;20313;-85
2023/09/15 03:00:08;;;;;;;4.47;4.07;;;;;;;16.74;59.26;98927.84;6861447;28;20355;-83
2023/09/15 03:03:30;;;;;;;5.00;4.33;;;;;;;16.82;60.30;98981.91;6861375;28;20239;-83
2023/09/15 03:06:52;;;;;;;4.87;4.37;;;;;;;17.10;60.02;98975.72;6861646;28;20689;-83
2023/09/15 03:10:13;;;;;;;6.57;4.37;;;;;;;17.17;59.54;98957.31;6861545;28;20426;-82
2023/09/15 03:13:36;;;;;;;13.00;9.67;;;;;;;17.44;58.46;98980.19;6861854;28;20297;-84
2023/09/15 03:16:58;;;;;;;5.03;4.10;;;;;;;17.04;57.54;98965.78;6861104;28;20788;-82
2023/09/15 03:20:21;;;;;;;8.37;4.67;;;;;;;16.55;60.37;98952.75;6861577;28;20210;-84
2023/09/15 03:23:42;;;;;;;5.47;4.20;;;;;;;17.09;59.36;98996.66;6861631;28;20230;-83
2023/09/15 03:27:05;;;;;;;4.23;3.83;;;;;;;17.18;59.03;98969.84;6866654;28;20327;-82
2023/09/15 03:30:28;;;;;;;4.40;3.77;;;;;;;17.01;59.28;98991.59;6865363;28;20216;-83
2023/09/15 03:33:49;;;;;;;4.10;3.80;;;;;;;17.22;58.56;98993.66;6866423;28;20269;-83
2023/09/15 03:37:11;;;;;;;5.60;4.43;;;;;;;17.09;58.90;98987.66;6866673;28;20210;-83
2023/09/15 03:40:32;;;;;;;18.37;16.57;;;;;;;16.40;58.59;98857.19;6866095;28;20259;-82
2023/09/15 03:43:55;;;;;;;4.83;3.93;;;;;;;17.06;58.75;98982.69;6866668;28;20324;-83
2023/09/15 03:47:18;;;;;;;7.70;3.43;;;;;;;17.39;57.31;98978.22;6866287;28;20223;-82
2023/09/15 03:50:40;;;;;;;4.20;3.80;;;;;;;17.11;57.52;98967.28;6866071;28;20238;-83
2023/09/15 03:54:02;;;;;;;4.20;3.80;;;;;;;17.12;58.05;98979.84;6893186;28;20226;-83
2023/09/15 03:57:24;;;;;;;4.90;4.10;;;;;;;17.00;58.67;98961.88;6893086;28;20207;-83
2023/09/15 04:00:46;;;;;;;4.17;3.70;;;;;;;17.07;58.57;98959.81;6875760;28;20207;-83
2023/09/15 04:04:09;;;;;;;4.33;3.90;;;;;;;16.99;58.51;98965.69;6866058;28;20321;-83
2023/09/15 04:07:30;;;;;;;4.67;3.60;;;;;;;17.00;57.71;98951.81;6865600;28;20758;-83
2023/09/15 04:10:52;;;;;;;4.53;3.73;;;;;;;17.06;57.15;98952.72;6864938;28;20741;-84
2023/09/15 04:14:13;;;;;;;7.60;4.43;;;;;;;16.71;58.53;98965.63;6865948;28;20308;-82
2023/09/15 04:17:35;;;;;;;4.87;4.10;;;;;;;16.50;59.62;98974.41;6864656;28;20340;-83
2023/09/15 04:20:58;;;;;;;6.47;4.67;;;;;;;16.37;60.29;98961.03;6865342;28;20293;-83
2023/09/15 04:24:19;;;;;;;4.47;4.07;;;;;;;16.35;60.51;98955.81;6865309;28;20300;-82
2023/09/15 04:27:41;;;;;;;4.83;4.33;;;;;;;16.61;59.90;98955.34;6866350;28;20757;-83
2023/09/15 04:31:03;;;;;;;6.13;4.27;;;;;;;16.58;59.50;98963.97;6865138;28;20336;-84
2023/09/15 04:34:24;;;;;;;5.97;4.23;;;;;;;16.57;58.79;98958.81;6865528;28;20206;-84
2023/09/15 04:37:47;;;;;;;4.70;4.17;;;;;;;16.67;59.13;98965.28;6865982;28;20241;-83
2023/09/15 04:41:09;;;;;;;6.97;4.53;;;;;;;16.23;59.30;98894.34;6864775;28;20240;-84
2023/09/15 04:44:30;;;;;;;5.10;4.57;;;;;;;16.54;59.38;98957.38;6865746;28;20234;-82
2023/09/15 04:47:52;;;;;;;6.10;4.20;;;;;;;16.85;58.67;98972.44;6865157;28;20698;-82
2023/09/15 04:51:13;;;;;;;4.37;3.93;;;;;;;16.52;58.69;98953.25;6865145;28;20609;-81
2023/09/15 04:54:36;;;;;;;4.43;4.03;;;;;;;16.50;59.16;98961.63;6864027;28;20300;-81
2023/09/15 04:57:58;;;;;;;3.70;3.40;;;;;;;16.31;60.00;98983.75;6864303;28;20293;-81
2023/09/15 05:01:19;;;;;;;4.87;4.00;;;;;;;15.82;59.15;98840.09;6863534;28;20264;-81
2023/09/15 05:04:41;;;;;;;5.77;3.87;;;;;;;16.86;58.42;98957.78;6865501;28;20213;-82
2023/09/15 05:08:02;;;;;;;4.70;4.30;;;;;;;16.89;58.14;98957.28;6860880;28;20376;-81
2023/09/15 05:11:25;;;;;;;4.40;4.00;;;;;;;16.74;58.22;98959.72;6860165;28;20269;-81
2023/09/15 05:14:47;;;;;;;4.77;4.27;;;;;;;16.48;57.59;98966.50;6882803;28;20279;-80
2023/09/15 05:18:08;;;;;;;4.40;3.80;;;;;;;16.55;59.35;98947.31;6850548;28;20729;-81
2023/09/15 05:21:30;;;;;;;7.20;4.07;;;;;;;16.65;58.40;98942.94;6868493;28;20256;-84
2023/09/15 05:24:51;;;;;;;10.20;9.30;;;;;;;16.34;58.63;98882.59;6863057;28;20669;-82
2023/09/15 05:28:14;;;;;;;5.30;4.80;;;;;;;16.81;57.97;98958.50;6863044;28;20372;-82
2023/09/15 05:31:36;;;;;;;4.27;3.90;;;;;;;16.72;57.01;98978.16;6835578;29;20362;-82
2023/09/15 05:34:57;;;;;;;5.13;4.37;;;;;;;16.65;57.97;98932.03;6836694;29;20739;-82
2023/09/15 05:38:19;;;;;;;5.93;4.53;;;;;;;16.72;58.25;98981.72;6836018;29;20298;-81
2023/09/15 05:41:40;;;;;;;6.77;5.67;;;;;;;16.29;58.32;98888.75;6835447;29;20328;-82
2023/09/15 05:45:04;;;;;;;7.83;5.87;;;;;;;17.04;57.86;98977.50;6852596;28;20242;-81
2023/09/15 05:48:26;;;;;;;5.40;3.60;;;;;;;16.98;57.16;98923.16;6862144;28;20666;-81
2023/09/15 05:51:47;;;;;;;4.77;4.37;;;;;;;17.08;56.86;98984.13;6860830;28;20284;-82
2023/09/15 05:55:09;;;;;;;6.63;4.57;;;;;;;16.95;57.97;98976.22;6862895;28;20296;-82
2023/09/15 05:58:31;;;;;;;4.77;4.37;;;;;;;17.29;57.90;98983.41;6862772;28;20337;-83
2023/09/15 06:01:55;;;;;;;5.70;4.30;;;;;;;17.82;57.13;98977.63;6868584;28;20697;-82
2023/09/15 06:05:19;;;;;;;5.53;4.33;;;;;;;18.37;54.81;98984.81;6885265;28;20293;-82
2023/09/15 06:08:41;;;;;;;5.53;3.27;;;;;;;18.79;53.61;98975.03;6862605;28;20227;-85
2023/09/15 06:12:02;;;;;;;5.73;4.17;;;;;;;18.79;53.47;98957.81;6863402;28;20261;-84
2023/09/15 06:15:26;;;;;;;7.60;3.70;;;;;;;19.31;52.60;98973.53;6862051;28;20342;-86
2023/09/15 06:18:49;;;;;;;5.37;3.80;;;;;;;19.59;52.00;98986.94;6860834;28;20211;-85
2023/09/15 06:22:10;;;;;;;5.17;4.23;;;;;;;19.81;51.74;98982.22;6860588;28;20336;-88
2023/09/15 06:25:32;;;;;;;4.83;4.33;;;;;;;18.92;53.45;98917.28;6861574;28;20263;-87
2023/09/15 06:28:53;;;;;;;6.40;4.70;;;;;;;19.82;52.61;98951.03;6861181;28;20232;-86
2023/09/15 06:32:15;;;;;;;5.27;4.70;;;;;;;20.70;49.98;98984.00;6860633;28;20228;-86
2023/09/15 06:35:38;;;;;;;5.43;4.73;;;;;;;20.57;51.12;98986.41;6861493;28;20241;-86
2023/09/15 06:38:59;;;;;;;8.27;4.97;;;;;;;20.94;50.81;98982.50;6860262;28;20205;-87
2023/09/15 06:42:21;;;;;;;5.50;4.90;;;;;;;19.95;54.55;98988.09;6860397;28;20283;-87
2023/09/15 06:45:43;;;;;;;6.97;5.80;;;;;;;20.01;54.43;98976.94;6861393;28;20364;-86
2023/09/15 06:49:04;;;;;;;5.57;4.77;;;;;;;20.12;54.15;98977.88;6860460;28;20316;-86
2023/09/15 06:52:27;;;;;;;5.87;5.07;;;;;;;20.70;53.17;98970.31;6860538;28;20221;-85
2023/09/15 06:55:49;;;;;;;4.70;4.30;;;;;;;21.31;51.52;98966.78;6859969;28;20240;-86
2023/09/15 06:59:10;;;;;;;5.33;4.83;;;;;;;21.61;50.56;98969.56;6860839;28;20697;-86
2023/09/15 07:02:32;;;;;;;6.07;5.00;;;;;;;21.95;49.78;98970.75;6868599;28;20275;-84
2023/09/15 07:05:54;;;;;;;7.30;4.80;;;;;;;22.54;47.37;98950.66;6875038;28;20291;-86
2023/09/15 07:09:16;;;;;;;5.20;4.70;;;;;;;22.61;47.72;98966.88;6866442;28;20238;-85
2023/09/15 07:12:38;;;;;;;9.13;4.97;;;;;;;22.55;47.12;98954.25;6860689;28;20738;-85
2023/09/15 07:16:00;;;;;;;6.50;4.80;;;;;;;23.22;46.43;98966.41;6871175;28;20279;-84
2023/09/15 07:19:21;;;;;;;5.50;5.00;;;;;;;22.77;47.18;98962.97;6877276;28;20245;-84
2023/09/15 07:22:43;;;;;;;7.20;5.17;;;;;;;23.43;46.85;98954.16;6890319;28;20364;-84
2023/09/15 07:26:06;;;;;;;5.97;5.10;;;;;;;23.40;46.00;98954.75;6884615;28;20375;-84
2023/09/15 07:29:28;;;;;;;5.93;5.00;;;;;;;24.11;44.99;98963.34;6885615;28;20704;-84
2023/09/15 07:32:49;;;;;;;6.07;5.47;;;;;;;24.02;45.42;98954.06;6874662;28;20229;-84
2023/09/15 07:36:11;;;;;;;8.97;5.50;;;;;;;23.41;46.00;98952.78;6868006;28;20352;-83
2023/09/15 07:39:32;;;;;;;6.03;5.53;;;;;;;23.70;46.40;98957.31;6860644;28;20253;-81
2023/09/15 07:42:55;;;;;;;5.80;5.27;;;;;;;24.53;44.28;98957.97;6872903;28;20309;-84
2023/09/15 07:46:17;;;;;;;6.17;5.53;;;;;;;23.88;43.75;98903.47;6864959;28;20230;-85
2023/09/15 07:49:38;;;;;;;9.70;5.03;;;;;;;24.34;45.06;98954.31;6867685;28;20628;-86
2023/09/15 07:53:00;;;;;;;7.47;5.30;;;;;;;24.81;44.08;98946.97;6851512;28;20592;-85
2023/09/15 07:56:23;;;;;;;5.33;4.83;;;;;;;25.28;43.23;98946.94;6857399;28;20223;-83
2023/09/15 07:59:46;;;;;;;6.10;5.30;;;;;;;25.02;43.26;98937.31;6866564;28;20352;-84
2023/09/15 08:03:08;;;;;;;5.53;4.43;;;;;;;25.44;43.44;98936.50;6858849;28;20354;-84
2023/09/15 08:06:29;;;;;;;5.17;4.67;;;;;;;26.05;41.98;98938.06;6866682;28;20206;-84
2023/09/15 08:09:52;;;;;;;5.07;4.57;;;;;;;26.04;42.38;98930.06;6866660;28;20235;-84
2023/09/15 08:13:13;;;;;;;5.77;4.67;;;;;;;26.46;42.14;98929.88;6863720;28;20633;-84
2023/09/15 08:16:36;;;;;;;9.77;5.10;;;;;;;26.03;42.02;98928.44;6866264;28;20252;-85
2023/09/15 08:19:58;;;;;;;5.27;4.83;;;;;;;26.51;40.93;98915.94;6865555;28;20355;-84
2023/09/15 08:23:20;;;;;;;5.90;5.10;;;;;;;26.80;40.07;98897.16;6866179;28;20317;-83
2023/09/15 08:26:41;;;;;;;6.30;5.20;;;;;;;26.93;40.58;98915.69;6867464;28;20244;-83
2023/09/15 08:30:03;;;;;;;5.27;4.77;;;;;;;27.09;40.68;98917.03;6867261;28;20220;-83
2023/09/15 08:33:27;;;;;;;5.00;4.40;;;;;;;27.48;40.01;98915.34;6867014;28;20233;-83
2023/09/15 08:36:48;;;;;;;5.20;4.70;;;;;;;26.71;41.51;98919.19;6866941;28;20209;-84
2023/09/15 08:40:11;;;;;;;6.33;4.53;;;;;;;27.52;40.30;98915.53;6866491;28;20209;-84
2023/09/15 08:43:33;;;;;;;5.30;4.10;;;;;;;27.78;40.21;98920.19;6867253;28;20596;-85
2023/09/15 08:46:56;;;;;;;5.40;4.57;;;;;;;28.06;39.75;98916.16;6866671;28;20577;-84
2023/09/15 08:50:19;;;;;;;5.43;4.57;;;;;;;28.67;38.07;98913.44;6866512;28;20220;-84
2023/09/15 08:53:41;;;;;;;4.73;4.33;;;;;;;28.46;38.93;98904.06;6865793;28;20308;-84
2023/09/15 08:57:03;;;;;;;4.50;4.10;;;;;;;28.57;38.51;98904.59;6866099;28;20304;-84
2023/09/15 09:00:25;;;;;;;6.47;4.47;;;;;;;28.80;38.05;98900.59;6864225;28;20236;-84
2023/09/15 09:03:46;;;;;;;4.77;4.37;;;;;;;28.97;37.97;98895.16;6865003;28;20272;-84
2023/09/15 09:07:09;;;;;;;4.93;4.53;;;;;;;28.13;39.01;98896.31;6865565;28;20297;-84
2023/09/15 09:10:31;;;;;;;4.90;4.40;;;;;;;28.60;38.75;98882.56;6866946;28;20295;-85
2023/09/15 09:13:53;;;;;;;5.03;4.50;;;;;;;28.22;38.60;98886.94;6866666;28;20276;-85
2023/09/15 09:17:14;;;;;;;4.40;4.00;;;;;;;28.44;39.51;98864.72;6862560;28;20244;-85
2023/09/15 09:20:37;;;;;;;5.67;4.50;;;;;;;28.48;39.43;98884.31;6863075;28;20637;-84
2023/09/15 09:24:00;;;;;;;4.47;4.07;;;;;;;29.28;38.37;98874.47;6862983;28;20268;-84
2023/09/15 09:27:22;;;;;;;6.70;4.60;;;;;;;29.27;36.85;98828.41;6864064;28;20320;-84
2023/09/15 09:30:43;;;;;;;4.70;4.30;;;;;;;29.43;38.16;98864.84;6863323;28;20694;-87
2023/09/15 09:34:05;;;;;;;6.13;4.83;;;;;;;29.11;37.93;98860.56;6861790;28;20395;-85
2023/09/15 09:37:27;;;;;;;4.57;4.27;;;;;;;29.75;37.42;98873.53;6861321;28;20218;-85
2023/09/15 09:40:50;;;;;;;5.43;4.67;;;;;;;29.23;38.17;98849.63;6862692;28;20302;-86
2023/09/15 09:44:12;;;;;;;4.83;4.37;;;;;;;28.95;38.44;98851.03;6862744;28;20247;-85
2023/09/15 09:47:34;;;;;;;6.20;5.47;;;;;;;27.62;40.30;98866.25;6862290;28;20299;-85
2023/09/15 09:50:56;;;;;;;5.37;4.63;;;;;;;28.99;38.74;98865.09;6862978;28;20252;-84
2023/09/15 09:54:17;;;;;;;7.60;4.87;;;;;;;30.29;36.54;98844.16;6863218;28;20294;-84
2023/09/15 09:57:40;;;;;;;5.20;4.70;;;;;;;29.22;37.81;98842.44;6863533;28;20724;-84
2023/09/15 10:01:04;;;;;;;6.07;5.43;;;;;;;29.65;37.60;98834.94;6861984;28;20209;-85
2023/09/15 10:04:25;;;;;;;6.53;5.30;;;;;;;29.32;37.27;98849.63;6861950;28;20208;-85
2023/09/15 10:07:47;;;;;;;5.97;5.47;;;;;;;29.21;38.05;98842.75;6862666;28;20268;-85
2023/09/15 10:11:09;;;;;;;5.57;5.07;;;;;;;30.30;35.98;98802.13;6862581;28;20663;-84
2023/09/15 10:14:32;;;;;;;4.80;4.27;;;;;;;30.57;36.20;98823.94;6862774;28;20210;-84
2023/09/15 10:17:54;;;;;;;5.17;4.73;;;;;;;30.44;35.17;98838.88;6860594;28;20204;-84
2023/09/15 10:21:16;;;;;;;5.50;5.10;;;;;;;29.80;36.29;98828.91;6862522;28;20281;-84
2023/09/15 10:24:37;;;;;;;5.23;4.73;;;;;;;29.02;38.04;98803.38;6862486;28;20836;-84
2023/09/15 10:27:59;;;;;;;6.23;4.47;;;;;;;29.11;37.96;98793.06;6861498;28;20322;-84
2023/09/15 10:31:22;;;;;;;5.20;4.47;;;;;;;29.24;37.67;98801.25;6865826;28;20228;-84
2023/09/15 10:34:44;;;;;;;5.03;4.63;;;;;;;30.56;34.41;98799.22;6869012;28;20207;-84
2023/09/15 10:38:06;;;;;;;5.43;4.13;;;;;;;30.78;34.89;98804.53;6869177;28;20572;-85
2023/09/15 10:41:28;;;;;;;4.67;4.30;;;;;;;29.29;37.29;98812.22;6866877;28;20743;-84
2023/09/15 10:44:50;;;;;;;4.90;4.50;;;;;;;29.71;35.61;98811.41;6867930;28;20219;-84
2023/09/15 10:48:13;;;;;;;4.97;4.57;;;;;;;30.25;34.89;98807.84;6865382;28;20225;-83
2023/09/15 10:51:35;;;;;;;4.67;4.27;;;;;;;29.65;35.51;98812.72;6867409;28;20259;-83
2023/09/15 10:54:57;;;;;;;4.83;4.30;;;;;;;29.14;35.55;98800.78;6868564;28;20269;-84
2023/09/15 10:58:18;;;;;;;4.90;4.20;;;;;;;28.54;36.81;98789.50;6868239;28;20271;-83
2023/09/15 11:01:43;;;;;;;4.70;4.20;;;;;;;29.00;36.26;98737.06;6865994;28;20704;-83
2023/09/15 11:05:07;;;;;;;3.93;3.63;;;;;;;29.97;35.78;98753.78;6877294;28;20235;-83
2023/09/15 11:08:29;;;;;;;5.23;4.20;;;;;;;30.29;34.53;98771.84;6867957;28;20286;-84
2023/09/15 11:11:52;;;;;;;4.57;4.10;;;;;;;28.96;36.41;98761.06;6865685;28;20721;-84
2023/09/15 11:15:13;;;;;;;4.60;3.93;;;;;;;29.87;35.77;98756.91;6869346;28;20207;-83
2023/09/15 11:18:35;;;;;;;3.97;3.67;;;;;;;30.14;34.63;98764.06;6868899;28;20294;-84
2023/09/15 11:22:02;;;;;;;4.13;3.77;;;;;;;29.06;35.81;98713.53;6868138;28;20258;-84
2023/09/15 11:25:24;;;;;;;4.67;3.83;;;;;;;30.65;33.81;98747.94;6878956;28;20257;-84
2023/09/15 11:28:46;;;;;;;5.53;3.87;;;;;;;30.83;33.55;98743.88;6867730;28;20236;-84
2023/09/15 11:32:07;;;;;;;3.77;3.47;;;;;;;31.39;32.63;98746.09;6865517;28;20793;-85
2023/09/15 11:35:31;;;;;;;4.37;3.90;;;;;;;30.45;32.80;98676.34;6867514;28;20217;-83
2023/09/15 11:38:56;;;;;;;3.97;3.57;;;;;;;31.62;32.82;98739.00;6864600;28;20252;-83
2023/09/15 11:42:18;;;;;;;4.20;3.80;;;;;;;30.90;33.20;98721.09;6865243;28;20733;-83
2023/09/15 11:45:39;;;;;;;5.60;3.67;;;;;;;30.51;33.84;98722.31;6863394;28;20241;-83
2023/09/15 11:49:02;;;;;;;5.20;4.13;;;;;;;28.48;36.92;98728.97;6864912;28;20321;-83
2023/09/15 11:52:24;;;;;;;4.33;3.93;;;;;;;29.90;34.30;98728.44;6868141;28;20224;-84
2023/09/15 11:55:51;;;;;;;4.40;4.00;;;;;;;29.72;34.50;98712.97;6864401;28;20240;-84
2023/09/15 11:59:14;;;;;;;3.87;3.57;;;;;;;29.90;33.65;98711.75;6867012;28;20193;-84
2023/09/15 12:02:36;;;;;;;5.23;3.40;;;;;;;30.15;30.67;98660.00;6862956;28;20319;-84
2023/09/15 12:05:57;;;;;;;3.80;3.50;;;;;;;31.10;30.01;98703.53;6863253;28;20846;-84
2023/09/15 12:09:20;;;;;;;3.80;3.50;;;;;;;31.28;29.71;98655.72;6864507;28;20268;-83
2023/09/15 12:12:43;;;;;;;3.70;3.40;;;;;;;30.92;29.78;98626.88;6864632;28;20607;-84
2023/09/15 12:16:05;;;;;;;3.97;3.47;;;;;;;31.73;29.81;98695.56;6865945;28;20686;-85
2023/09/15 12:19:26;;;;;;;3.90;3.60;;;;;;;31.71;30.15;98692.28;6865662;28;20213;-85
2023/09/15 12:22:48;;;;;;;3.60;3.30;;;;;;;32.38;29.68;98686.25;6857462;28;20261;-84
2023/09/15 12:26:10;;;;;;;4.10;3.80;;;;;;;32.38;29.08;98697.41;6867779;28;20274;-84
2023/09/15 12:29:33;;;;;;;3.70;3.30;;;;;;;31.47;30.28;98689.44;6867459;28;20238;-84
2023/09/15 12:32:55;;;;;;;4.83;4.03;;;;;;;31.79;29.92;98685.81;6865439;28;20264;-84
2023/09/15 12:36:18;;;;;;;3.70;3.40;;;;;;;31.77;28.88;98665.84;6868113;28;20699;-84
2023/09/15 12:39:39;;;;;;;3.90;3.53;;;;;;;31.09;30.75;98685.19;6866278;28;20210;-84
2023/09/15 12:43:01;;;;;;;4.10;3.80;;;;;;;30.60;31.19;98667.38;6864634;28;20660;-84
2023/09/15 12:46:24;;;;;;;4.30;3.90;;;;;;;30.93;31.65;98676.66;6866555;28;20272;-84
2023/09/15 12:49:45;;;;;;;4.03;3.73;;;;;;;30.93;31.86;98671.09;6868692;28;20993;-84
2023/09/15 12:53:07;;;;;;;4.80;4.20;;;;;;;31.30;31.23;98658.16;6892083;28;20260;-84
2023/09/15 12:56:31;;;;;;;4.43;4.03;;;;;;;30.19;32.67;98628.38;6878957;28;20317;-84
2023/09/15 12:59:53;;;;;;;3.97;3.60;;;;;;;30.74;32.70;98659.63;6865678;28;20217;-83
2023/09/15 13:03:16;;;;;;;6.47;4.20;;;;;;;30.79;32.42;98656.63;6864290;28;20236;-83
2023/09/15 13:06:37;;;;;;;4.47;4.07;;;;;;;30.77;32.36;98647.00;6856620;28;20272;-83
2023/09/15 13:09:59;;;;;;;5.30;4.80;;;;;;;30.98;32.49;98650.56;6865314;28;20236;-83
2023/09/15 13:13:20;;;;;;;4.43;4.03;;;;;;;30.63;32.57;98638.88;6863189;28;20367;-83
2023/09/15 13:16:42;;;;;;;4.80;4.40;;;;;;;31.05;31.47;98660.00;6864810;28;20291;-83
2023/09/15 13:20:07;;;;;;;4.67;4.23;;;;;;;30.74;32.47;98626.22;6865152;28;20292;-83
2023/09/15 13:23:28;;;;;;;5.13;4.70;;;;;;;31.21;32.12;98646.28;6865932;28;20226;-83
2023/09/15 13:26:52;;;;;;;5.00;4.50;;;;;;;30.63;33.25;98640.84;6864117;28;20196;-83
2023/09/15 13:30:14;;;;;;;5.10;4.70;;;;;;;30.13;33.93;98637.28;6864625;28;20235;-84
2023/09/15 13:33:36;;;;;;;4.93;4.50;;;;;;;30.64;33.22;98629.41;6865106;28;20232;-83
2023/09/15 13:36:59;;;;;;;4.83;4.43;;;;;;;31.01;33.35;98628.41;6864555;28;20294;-83
2023/09/15 13:40:21;;;;;;;4.83;4.43;;;;;;;30.76;33.20;98635.03;6863801;28;20665;-83
2023/09/15 13:43:42;;;;;;;6.03;4.67;;;;;;;30.07;33.54;98624.69;6865571;28;20371;-81
2023/09/15 13:47:04;;;;;;;5.77;5.27;;;;;;;29.91;34.46;98610.50;6864542;28;20816;-85
2023/09/15 13:50:26;;;;;;;5.30;4.80;;;;;;;30.50;33.98;98603.78;6864534;28;20689;-82
2023/09/15 13:53:49;;;;;;;5.60;5.10;;;;;;;31.09;33.10;98624.75;6864971;28;20225;-84
2023/09/15 13:57:11;;;;;;;5.23;4.80;;;;;;;30.56;34.12;98616.34;6865020;28;20287;-84
2023/09/15 14:00:32;;;;;;;5.60;4.97;;;;;;;30.29;34.04;98616.88;6863630;28;20228;-84
2023/09/15 14:03:56;;;;;;;5.90;5.30;;;;;;;29.92;34.17;98617.72;6865915;28;20367;-83
2023/09/15 14:07:18;;;;;;;5.30;4.80;;;;;;;30.20;34.81;98615.28;6863079;28;20213;-85
2023/09/15 14:10:41;;;;;;;6.03;5.00;;;;;;;30.82;33.81;98624.50;6885155;28;20282;-84
2023/09/15 14:14:02;;;;;;;5.50;5.00;;;;;;;30.97;34.13;98607.16;6874593;28;20319;-85
2023/09/15 14:17:25;;;;;;;5.30;4.83;;;;;;;30.48;34.84;98610.84;6859833;28;20200;-83
2023/09/15 14:20:48;;;;;;;6.07;5.20;;;;;;;30.72;33.32;98611.00;6864982;28;20205;-83
2023/09/15 14:24:10;;;;;;;5.30;4.80;;;;;;;29.79;34.95;98620.72;6864810;28;20264;-83
2023/09/15 14:27:33;;;;;;;6.47;5.23;;;;;;;29.43;35.89;98598.94;6867745;28;20212;-82
2023/09/15 14:30:55;;;;;;;7.20;5.67;;;;;;;30.19;35.38;98583.88;6892898;28;20224;-83
2023/09/15 14:34:17;;;;;;;5.53;4.97;;;;;;;30.58;34.91;98596.50;6876433;28;20207;-83
2023/09/15 14:37:38;;;;;;;5.70;5.20;;;;;;;30.96;34.78;98591.63;6873594;28;20216;-82
2023/09/15 14:41:00;;;;;;;5.90;5.27;;;;;;;30.83;34.45;98590.75;6863493;28;20247;-83
2023/09/15 14:44:23;;;;;;;6.20;5.60;;;;;;;30.14;35.52;98591.63;6873020;28;20287;-83
2023/09/15 14:47:45;;;;;;;5.47;4.97;;;;;;;29.94;35.36;98595.94;6876112;28;20235;-83
2023/09/15 14:51:08;;;;;;;5.03;4.63;;;;;;;30.42;34.99;98584.38;6875822;28;20681;-83
2023/09/15 14:54:29;;;;;;;5.60;4.43;;;;;;;30.77;34.72;98591.31;6876158;28;20218;-83
2023/09/15 14:57:51;;;;;;;4.83;4.47;;;;;;;30.72;34.92;98592.31;6878194;28;20227;-83
2023/09/15 15:01:14;;;;;;;5.30;4.80;;;;;;;31.12;34.84;98596.19;6871590;28;20663;-83
2023/09/15 15:04:35;;;;;;;5.77;5.27;;;;;;;30.82;35.24;98583.56;6871487;28;20266;-82
2023/09/15 15:07:57;;;;;;;5.53;5.00;;;;;;;30.35;34.75;98584.09;6871146;28;20856;-83
2023/09/15 15:11:18;;;;;;;5.57;5.07;;;;;;;30.55;35.18;98589.66;6872849;28;20260;-82
2023/09/15 15:14:40;;;;;;;6.07;5.17;;;;;;;30.48;35.09;98586.59;6872892;28;20227;-84
2023/09/15 15:18:03;;;;;;;5.93;5.27;;;;;;;30.32;35.15;98557.75;6869522;28;20299;-84
2023/09/15 15:21:25;;;;;;;5.63;5.13;;;;;;;30.12;36.02;98566.09;6876322;28;20227;-83
2023/09/15 15:24:46;;;;;;;5.37;4.87;;;;;;;29.81;36.67;98576.72;6881036;28;20292;-83
2023/09/15 15:28:08;;;;;;;6.17;5.40;;;;;;;29.26;37.41;98568.41;6875711;28;20248;-83
2023/09/15 15:31:29;;;;;;;5.50;5.00;;;;;;;29.87;37.04;98573.44;6869309;28;20379;-83
2023/09/15 15:34:52;;;;;;;6.17;5.63;;;;;;;30.35;36.21;98567.38;6875688;28;20203;-83
2023/09/15 15:38:14;;;;;;;6.63;5.07;;;;;;;30.54;35.94;98567.75;6874156;28;20624;-82
2023/09/15 15:41:36;;;;;;;6.27;5.67;;;;;;;30.56;35.99;98562.63;6877612;28;20250;-84
2023/09/15 15:44:57;;;;;;;5.77;5.13;;;;;;;30.30;35.69;98557.28;6874455;28;20223;-85
2023/09/15 15:48:19;;;;;;;6.63;5.33;;;;;;;30.05;36.72;98574.94;6873263;28;20695;-84
2023/09/15 15:51:42;;;;;;;6.20;5.70;;;;;;;29.98;37.38;98571.88;6876565;28;20240;-84
2023/09/15 15:55:04;;;;;;;5.73;5.10;;;;;;;30.34;36.61;98566.59;6881336;28;20235;-84